Terminal Aerodrome Forecast
Issued by NWS

Home | Current Version | Previous Version | Text Only | Print | Product List | Glossary On
Versions: 1 2 3 4 5 6 7 8 9 10 11 12 13 14 15 16 17 18 19 20 21 22 23 24 25 26 27
473
FTPQ31 PGUM 270621 AAB
TAFKWA
TAF AMD
PKWA 270621Z 2706/2806 06015G21KT P6SM VCSH SCT020 SCT035 BKN120
      TEMPO 2706/2710 -SHRA BKN025=

USA.gov is the U.S. government's official web portal to all federal, state and local government web resources and services.